createdAt,value
2022-12-11T00:00:23.662Z,99.90
2022-12-11T00:02:50.420Z,99.90
2022-12-11T00:05:17.266Z,99.90
2022-12-11T00:07:44.028Z,99.90
2022-12-11T00:10:10.813Z,99.90
2022-12-11T00:12:37.548Z,99.90
2022-12-11T00:15:04.681Z,99.90
2022-12-11T00:17:31.423Z,99.90
2022-12-11T00:19:58.198Z,99.90
2022-12-11T00:22:24.919Z,99.90
2022-12-11T00:24:52.086Z,99.90
2022-12-11T00:27:18.894Z,99.90
2022-12-11T00:29:45.646Z,99.90
2022-12-11T00:32:12.395Z,99.90
2022-12-11T00:34:39.164Z,99.90
2022-12-11T00:37:05.975Z,99.90
2022-12-11T00:39:32.843Z,99.90
2022-12-11T00:41:59.557Z,99.90
2022-12-11T00:44:26.289Z,99.90
2022-12-11T00:46:53.013Z,99.90
2022-12-11T00:49:19.716Z,99.90
2022-12-11T00:51:46.432Z,99.90
2022-12-11T00:54:13.134Z,99.90
2022-12-11T00:56:39.968Z,99.90
2022-12-11T00:59:06.916Z,99.90
2022-12-11T01:01:33.690Z,99.90
2022-12-11T01:04:00.389Z,99.90
2022-12-11T01:06:28.893Z,99.90
2022-12-11T01:09:15.108Z,99.90
2022-12-11T01:11:43.579Z,99.90
2022-12-11T01:14:11.932Z,99.90
2022-12-11T01:16:38.842Z,99.90
2022-12-11T01:19:05.723Z,99.90
2022-12-11T01:21:32.690Z,99.90
2022-12-11T01:23:59.418Z,99.90
2022-12-11T01:26:26.201Z,99.90
2022-12-11T01:28:52.972Z,99.90
2022-12-11T01:31:21.007Z,99.90
2022-12-11T01:33:48.145Z,99.90
2022-12-11T01:36:20.721Z,99.90
2022-12-11T01:38:49.200Z,99.90
2022-12-11T01:41:18.033Z,99.90
2022-12-11T01:44:27.633Z,99.90
2022-12-11T01:46:54.786Z,99.90
2022-12-11T01:49:26.668Z,99.90
2022-12-11T01:52:11.206Z,99.90
2022-12-11T01:54:38.377Z,99.90
2022-12-11T01:57:08.693Z,99.90
2022-12-11T01:59:40.608Z,99.90
2022-12-11T02:02:30.609Z,99.90
2022-12-11T02:04:57.493Z,99.90
2022-12-11T02:07:24.501Z,99.90
2022-12-11T02:09:51.485Z,99.90
2022-12-11T02:12:54.523Z,99.90
2022-12-11T02:15:35.676Z,99.90
2022-12-11T02:18:27.089Z,99.90
2022-12-11T02:21:13.205Z,99.90
2022-12-11T02:24:11.723Z,99.90
2022-12-11T02:27:00.673Z,99.90
2022-12-11T02:29:39.437Z,99.90
2022-12-11T02:32:54.512Z,99.90
2022-12-11T02:35:36.794Z,99.90
2022-12-11T02:38:12.952Z,99.90
2022-12-11T02:40:43.534Z,99.90
2022-12-11T02:43:15.921Z,99.90
2022-12-11T02:45:46.681Z,99.90
2022-12-11T02:48:15.813Z,99.90
2022-12-11T02:50:47.325Z,99.90
2022-12-11T02:53:19.984Z,99.90
2022-12-11T02:55:52.035Z,99.90
2022-12-11T02:58:26.035Z,99.90
2022-12-11T03:00:53.344Z,99.90
2022-12-11T03:03:20.237Z,99.90
2022-12-11T03:05:47.427Z,99.90
2022-12-11T03:08:18.019Z,99.90
2022-12-11T03:10:46.430Z,99.90
2022-12-11T03:13:18.013Z,99.90
2022-12-11T03:16:04.378Z,99.90
2022-12-11T03:18:54.929Z,99.90
2022-12-11T03:21:54.731Z,99.90
2022-12-11T03:24:34.478Z,99.90
2022-12-11T03:27:32.100Z,99.90
2022-12-11T03:30:14.694Z,99.90
2022-12-11T03:32:56.004Z,99.90
2022-12-11T03:35:35.572Z,99.90
2022-12-11T03:38:10.776Z,99.90
2022-12-11T03:40:41.420Z,99.90
2022-12-11T03:43:11.017Z,99.90
2022-12-11T03:45:41.083Z,99.90
2022-12-11T03:48:11.294Z,99.90
2022-12-11T03:50:40.265Z,99.90
2022-12-11T03:53:08.037Z,99.90
2022-12-11T03:55:38.169Z,99.90
2022-12-11T03:58:05.175Z,99.90
2022-12-11T04:00:32.359Z,99.90
2022-12-11T04:03:14.918Z,99.90
2022-12-11T04:05:43.896Z,99.90
2022-12-11T04:08:11.278Z,99.90
2022-12-11T04:10:38.698Z,99.90
2022-12-11T04:13:05.846Z,99.90
2022-12-11T04:15:32.858Z,99.90
2022-12-11T04:18:18.054Z,99.90
2022-12-11T04:21:03.526Z,99.90
2022-12-11T04:23:48.898Z,99.90
2022-12-11T04:26:19.884Z,99.90
2022-12-11T04:28:48.265Z,99.90
2022-12-11T04:31:22.027Z,99.90
2022-12-11T04:33:49.196Z,99.90
2022-12-11T04:36:16.096Z,99.90
2022-12-11T04:38:42.801Z,99.90
2022-12-11T04:41:15.548Z,99.90
2022-12-11T04:43:46.238Z,99.90
2022-12-11T04:46:21.117Z,99.90
2022-12-11T04:48:53.866Z,99.90
2022-12-11T04:51:23.959Z,99.90
2022-12-11T04:53:50.730Z,99.90
2022-12-11T04:56:17.686Z,99.90
2022-12-11T04:58:46.528Z,99.90
2022-12-11T05:01:18.542Z,99.90
2022-12-11T05:03:46.030Z,99.90
2022-12-11T05:06:13.519Z,99.90
2022-12-11T05:08:42.862Z,99.90
2022-12-11T05:11:13.659Z,99.90
2022-12-11T05:13:40.884Z,99.90
2022-12-11T05:16:11.229Z,99.90
2022-12-11T05:18:38.231Z,99.90
2022-12-11T05:21:09.550Z,99.90
2022-12-11T05:23:37.032Z,99.90
2022-12-11T05:26:08.570Z,99.90
2022-12-11T05:28:38.803Z,99.90
2022-12-11T05:31:27.949Z,99.90
2022-12-11T05:33:54.804Z,99.90
2022-12-11T05:36:31.430Z,99.90
2022-12-11T05:39:02.386Z,99.90
2022-12-11T05:41:31.341Z,99.90
2022-12-11T05:43:58.328Z,99.90
2022-12-11T05:46:29.001Z,99.90
2022-12-11T05:49:01.704Z,99.90
2022-12-11T05:51:29.813Z,99.90
2022-12-11T05:53:58.317Z,99.90
2022-12-11T05:56:29.482Z,99.90
2022-12-11T05:58:58.563Z,99.90
2022-12-11T06:01:32.811Z,99.90
2022-12-11T06:04:00.867Z,99.90
2022-12-11T06:06:28.259Z,99.90
2022-12-11T06:08:58.108Z,99.90
2022-12-11T06:11:28.323Z,99.90
2022-12-11T06:13:55.653Z,99.90
2022-12-11T06:16:23.118Z,99.90
2022-12-11T06:18:50.180Z,99.90
2022-12-11T06:21:24.642Z,99.90
2022-12-11T06:23:54.745Z,99.90
2022-12-11T06:26:22.283Z,99.90
2022-12-11T06:28:49.831Z,99.90
2022-12-11T06:31:17.342Z,99.90
2022-12-11T06:33:44.287Z,99.90
2022-12-11T06:36:15.450Z,99.90
2022-12-11T06:38:42.877Z,99.90
2022-12-11T06:41:10.007Z,99.90
2022-12-11T06:43:39.132Z,99.90
2022-12-11T06:46:16.009Z,99.90
2022-12-11T06:48:44.005Z,99.90
2022-12-11T06:51:20.631Z,99.90
2022-12-11T06:53:53.187Z,99.90
2022-12-11T06:56:20.885Z,99.90
2022-12-11T06:58:49.936Z,99.90
2022-12-11T07:01:24.573Z,99.90
2022-12-11T07:03:58.361Z,99.90
2022-12-11T07:06:28.288Z,99.90
2022-12-11T07:08:55.152Z,99.90
2022-12-11T07:11:22.991Z,99.90
2022-12-11T07:13:49.707Z,99.90
2022-12-11T07:16:18.254Z,99.90
2022-12-11T07:18:50.402Z,99.90
2022-12-11T07:21:18.668Z,99.90
2022-12-11T07:23:45.423Z,99.90
2022-12-11T07:26:19.569Z,99.90
2022-12-11T07:28:46.361Z,99.90
2022-12-11T07:31:18.148Z,99.90
2022-12-11T07:33:45.331Z,99.90
2022-12-11T07:36:14.050Z,99.90
2022-12-11T07:38:41.099Z,99.90
2022-12-11T07:41:12.817Z,99.90
2022-12-11T07:43:41.258Z,99.90
2022-12-11T07:46:12.908Z,99.90
2022-12-11T07:48:41.843Z,99.90
2022-12-11T07:51:18.588Z,99.90
2022-12-11T07:53:49.800Z,99.90
2022-12-11T07:56:18.547Z,99.90
2022-12-11T07:58:46.479Z,99.90
2022-12-11T08:01:20.137Z,99.90
2022-12-11T08:03:47.629Z,99.90
2022-12-11T08:06:15.221Z,99.90
2022-12-11T08:08:43.061Z,99.90
2022-12-11T08:11:14.272Z,99.90
2022-12-11T08:13:42.144Z,99.90
2022-12-11T08:16:13.260Z,99.90
2022-12-11T08:18:41.247Z,99.90
2022-12-11T08:21:17.852Z,99.90
2022-12-11T08:23:45.900Z,99.90
2022-12-11T08:26:25.836Z,99.90
2022-12-11T08:28:53.423Z,99.90
2022-12-11T08:31:20.684Z,99.90
2022-12-11T08:33:49.373Z,99.90
2022-12-11T08:36:19.723Z,99.90
2022-12-11T08:38:47.302Z,99.90
2022-12-11T08:41:21.869Z,99.90
2022-12-11T08:43:49.180Z,99.90
2022-12-11T08:46:16.369Z,99.90
2022-12-11T08:48:44.076Z,99.90
2022-12-11T08:51:18.226Z,99.90
2022-12-11T08:53:44.927Z,99.90
2022-12-11T08:56:15.852Z,99.90
2022-12-11T08:58:43.667Z,99.90
2022-12-11T09:01:17.869Z,99.90
2022-12-11T09:03:44.653Z,99.90
2022-12-11T09:06:16.425Z,99.90
2022-12-11T09:08:51.672Z,99.90
2022-12-11T09:11:23.688Z,99.90
2022-12-11T09:13:50.677Z,99.90
2022-12-11T09:16:22.036Z,99.90
2022-12-11T09:18:52.250Z,99.90
2022-12-11T09:21:23.791Z,99.90
2022-12-11T09:23:55.511Z,99.90
2022-12-11T09:26:23.026Z,99.90
2022-12-11T09:28:53.011Z,99.90
2022-12-11T09:31:29.082Z,99.90
2022-12-11T09:34:02.275Z,99.90
2022-12-11T09:36:29.618Z,99.90
2022-12-11T09:39:00.812Z,99.90
2022-12-11T09:41:35.791Z,99.90
2022-12-11T09:44:11.218Z,99.90
2022-12-11T09:46:40.549Z,99.90
2022-12-11T09:49:30.761Z,99.90
2022-12-11T09:52:15.385Z,99.90
2022-12-11T09:54:57.617Z,99.90
2022-12-11T09:57:47.195Z,99.90
2022-12-11T10:00:20.174Z,99.90
2022-12-11T10:03:07.223Z,99.90
2022-12-11T10:05:52.558Z,99.90
2022-12-11T10:08:40.122Z,99.90
2022-12-11T10:11:34.736Z,99.90
2022-12-11T10:14:37.854Z,99.90
2022-12-11T10:17:23.274Z,99.90
2022-12-11T10:19:50.673Z,99.90
2022-12-11T10:22:24.461Z,99.90
2022-12-11T10:25:11.634Z,99.90
2022-12-11T10:27:50.737Z,99.90
2022-12-11T10:30:19.376Z,99.90
2022-12-11T10:33:21.580Z,99.90
2022-12-11T10:35:56.834Z,99.90
2022-12-11T10:38:33.767Z,99.90
2022-12-11T10:41:17.948Z,99.90
2022-12-11T10:43:48.020Z,99.90
2022-12-11T10:46:21.955Z,99.90
2022-12-11T10:48:55.363Z,99.90
2022-12-11T10:51:32.252Z,99.90
2022-12-11T10:54:17.028Z,99.90
2022-12-11T10:56:48.192Z,99.90
2022-12-11T10:59:34.368Z,99.90
2022-12-11T11:02:02.424Z,99.90
2022-12-11T11:04:35.890Z,99.90
2022-12-11T11:07:25.947Z,99.90
2022-12-11T11:10:11.640Z,99.90
2022-12-11T11:12:46.199Z,99.90
2022-12-11T11:15:45.117Z,99.90
2022-12-11T11:18:25.224Z,99.90
2022-12-11T11:20:52.623Z,99.90
2022-12-11T11:23:23.918Z,99.90
2022-12-11T11:26:00.566Z,99.90
2022-12-11T11:28:36.697Z,99.90
2022-12-11T11:31:09.878Z,99.90
2022-12-11T11:33:51.195Z,99.90
2022-12-11T11:36:29.421Z,99.90
2022-12-11T11:39:27.369Z,99.90
2022-12-11T11:41:59.056Z,99.90
2022-12-11T11:44:41.763Z,99.90
2022-12-11T11:47:24.200Z,99.90
2022-12-11T11:50:14.537Z,99.90
2022-12-11T11:53:06.012Z,99.90
2022-12-11T11:55:58.756Z,99.90
2022-12-11T11:58:49.249Z,99.90
2022-12-11T12:01:20.530Z,99.90
2022-12-11T12:03:50.107Z,99.90
2022-12-11T12:06:57.421Z,99.90
2022-12-11T12:10:21.717Z,99.90
2022-12-11T12:13:30.125Z,99.90
2022-12-11T12:16:01.187Z,99.90
2022-12-11T12:19:01.472Z,99.90
2022-12-11T12:21:36.670Z,99.90
2022-12-11T12:24:28.586Z,99.90
2022-12-11T12:27:51.569Z,99.90
2022-12-11T12:30:22.997Z,99.90
2022-12-11T12:33:29.501Z,99.90
2022-12-11T12:36:26.641Z,99.90
2022-12-11T12:39:02.454Z,99.90
2022-12-11T12:42:08.116Z,99.90
2022-12-11T12:44:48.278Z,99.90
2022-12-11T12:47:18.999Z,99.90
2022-12-11T12:49:53.013Z,99.90
2022-12-11T12:52:31.020Z,99.90
2022-12-11T12:55:14.300Z,99.90
2022-12-11T12:58:00.719Z,99.90
2022-12-11T13:00:43.696Z,99.90
2022-12-11T13:03:23.612Z,99.90
2022-12-11T13:06:10.584Z,99.90
2022-12-11T13:08:48.417Z,99.90
2022-12-11T13:11:19.796Z,92.90
2022-12-11T13:14:00.884Z,68.70
2022-12-11T13:16:40.686Z,60.40
2022-12-11T13:19:25.467Z,53.50
2022-12-11T13:22:10.740Z,49.90
2022-12-11T13:24:53.302Z,51.80
2022-12-11T13:27:38.876Z,55.60
2022-12-11T13:30:14.325Z,59.10
2022-12-11T13:33:01.609Z,62.70
2022-12-11T13:35:29.810Z,67.10
2022-12-11T13:38:07.348Z,69.90
2022-12-11T13:40:44.510Z,72.60
2022-12-11T13:43:35.366Z,74.70
2022-12-11T13:46:07.616Z,77.00
2022-12-11T13:48:41.035Z,79.10
2022-12-11T13:51:07.971Z,79.70
2022-12-11T13:53:34.688Z,82.00
2022-12-11T13:56:17.836Z,84.00
2022-12-11T13:58:44.750Z,86.20
2022-12-11T14:01:15.788Z,87.00
2022-12-11T14:03:55.344Z,87.40
2022-12-11T14:06:24.712Z,88.70
2022-12-11T14:08:56.379Z,89.10
2022-12-11T14:11:29.452Z,89.50
2022-12-11T14:14:00.592Z,90.20
2022-12-11T14:16:29.057Z,90.70
2022-12-11T14:19:05.114Z,91.10
2022-12-11T14:21:32.608Z,91.40
2022-12-11T14:24:06.555Z,91.60
2022-12-11T14:26:38.544Z,91.90
2022-12-11T14:29:06.673Z,92.20
2022-12-11T14:31:44.086Z,92.10
2022-12-11T14:34:21.072Z,92.40
2022-12-11T14:36:49.408Z,92.80
2022-12-11T14:39:59.472Z,92.80
2022-12-11T14:42:57.028Z,92.70
2022-12-11T14:45:47.066Z,93.00
2022-12-11T14:48:32.881Z,93.60
2022-12-11T14:51:04.943Z,93.80
2022-12-11T14:53:53.435Z,93.60
2022-12-11T14:56:29.932Z,93.30
2022-12-11T14:59:19.094Z,93.00
2022-12-11T15:01:45.945Z,93.50
2022-12-11T15:04:21.979Z,93.90
2022-12-11T15:06:51.000Z,94.20
2022-12-11T15:09:28.727Z,94.40
2022-12-11T15:12:07.644Z,94.90
2022-12-11T15:14:34.679Z,95.10
2022-12-11T15:17:01.597Z,95.60
2022-12-11T15:19:34.158Z,95.60
2022-12-11T15:22:07.675Z,95.80
2022-12-11T15:24:40.260Z,96.00
2022-12-11T15:27:24.664Z,96.20
2022-12-11T15:29:51.740Z,96.40
2022-12-11T15:32:21.651Z,96.90
2022-12-11T15:34:56.773Z,97.10
2022-12-11T15:37:25.208Z,97.10
2022-12-11T15:39:53.603Z,97.30
2022-12-11T15:42:28.939Z,97.60
2022-12-11T15:44:56.506Z,97.90
2022-12-11T15:47:30.255Z,98.30
2022-12-11T15:50:21.569Z,98.50
2022-12-11T15:52:49.993Z,98.50
2022-12-11T15:55:18.289Z,98.90
2022-12-11T15:58:03.181Z,99.10
2022-12-11T16:00:30.431Z,99.20
2022-12-11T16:02:57.950Z,99.90
2022-12-11T16:05:26.636Z,99.90
2022-12-11T16:07:54.651Z,99.90
2022-12-11T16:10:22.217Z,99.90
2022-12-11T16:12:49.009Z,99.90
2022-12-11T16:15:22.833Z,99.90
2022-12-11T16:17:50.433Z,99.90
2022-12-11T16:20:17.255Z,99.90
2022-12-11T16:22:44.563Z,99.90
2022-12-11T16:25:11.772Z,99.90
2022-12-11T16:27:38.714Z,99.90
2022-12-11T16:30:06.365Z,99.90
2022-12-11T16:32:33.191Z,99.90
2022-12-11T16:35:01.023Z,99.90
2022-12-11T16:37:28.186Z,99.90
2022-12-11T16:39:55.133Z,99.90
2022-12-11T16:42:21.921Z,99.90
2022-12-11T16:44:48.975Z,99.90
2022-12-11T16:47:15.952Z,99.90
2022-12-11T16:49:43.223Z,99.90
2022-12-11T16:52:10.566Z,99.90
2022-12-11T16:54:37.359Z,99.90
2022-12-11T16:57:04.263Z,99.90
2022-12-11T16:59:36.581Z,99.90
2022-12-11T17:02:04.300Z,99.90
2022-12-11T17:04:31.021Z,99.90
2022-12-11T17:06:57.780Z,99.90
2022-12-11T17:09:24.470Z,99.90
2022-12-11T17:11:51.354Z,99.90
2022-12-11T17:14:18.058Z,99.90
2022-12-11T17:16:44.809Z,99.90
2022-12-11T17:19:11.513Z,99.90
2022-12-11T17:21:38.245Z,99.90
2022-12-11T17:24:05.851Z,99.90
2022-12-11T17:26:32.924Z,99.90
2022-12-11T17:28:59.639Z,99.90
2022-12-11T17:31:27.244Z,99.90
2022-12-11T17:33:54.098Z,99.90
2022-12-11T17:36:22.273Z,99.90
2022-12-11T17:38:50.045Z,99.90
2022-12-11T17:41:20.739Z,99.90
2022-12-11T17:43:53.362Z,99.90
2022-12-11T17:46:20.818Z,99.90
2022-12-11T17:48:48.801Z,99.90
2022-12-11T17:51:21.837Z,99.90
2022-12-11T17:53:48.645Z,99.90
2022-12-11T17:56:15.386Z,99.90
2022-12-11T17:58:42.193Z,99.90
2022-12-11T18:01:11.008Z,99.90
2022-12-11T18:03:38.239Z,99.90
2022-12-11T18:06:10.293Z,99.90
2022-12-11T18:08:37.479Z,99.90
2022-12-11T18:11:08.398Z,99.90
2022-12-11T18:13:35.635Z,99.90
2022-12-11T18:16:12.076Z,99.90
2022-12-11T18:18:40.081Z,99.90
2022-12-11T18:21:07.350Z,99.90
2022-12-11T18:23:34.319Z,99.90
2022-12-11T18:26:01.988Z,99.90
2022-12-11T18:28:31.608Z,99.90
2022-12-11T18:31:03.489Z,99.90
2022-12-11T18:33:32.089Z,99.90
2022-12-11T18:35:58.881Z,99.90
2022-12-11T18:38:25.696Z,99.90
2022-12-11T18:40:52.524Z,99.90
2022-12-11T18:43:19.243Z,99.90
2022-12-11T18:45:46.159Z,99.90
2022-12-11T18:48:14.466Z,99.90
2022-12-11T18:50:48.989Z,99.90
2022-12-11T18:53:17.182Z,99.90
2022-12-11T18:55:48.907Z,99.90
2022-12-11T18:58:19.456Z,99.90
2022-12-11T19:00:46.733Z,99.90
2022-12-11T19:03:14.027Z,99.90
2022-12-11T19:05:43.610Z,99.90
2022-12-11T19:08:13.642Z,99.90
2022-12-11T19:10:43.537Z,99.90
2022-12-11T19:13:11.508Z,99.90
2022-12-11T19:15:42.026Z,99.90
2022-12-11T19:18:09.476Z,99.90
2022-12-11T19:20:55.389Z,99.90
2022-12-11T19:23:29.902Z,99.90
2022-12-11T19:25:56.662Z,99.90
2022-12-11T19:28:23.351Z,99.90
2022-12-11T19:30:50.138Z,99.90
2022-12-11T19:33:17.328Z,99.90
2022-12-11T19:35:44.426Z,99.90
2022-12-11T19:38:12.706Z,99.90
2022-12-11T19:40:42.865Z,99.90
2022-12-11T19:43:10.311Z,99.90
2022-12-11T19:45:37.668Z,99.90
2022-12-11T19:48:05.112Z,99.90
2022-12-11T19:50:31.837Z,99.90
2022-12-11T19:52:58.582Z,99.90
2022-12-11T19:55:25.646Z,99.90
2022-12-11T19:57:52.356Z,99.90
2022-12-11T20:00:20.130Z,99.90
2022-12-11T20:02:48.923Z,99.90
2022-12-11T20:05:15.999Z,99.90
2022-12-11T20:07:45.963Z,99.90
2022-12-11T20:10:12.994Z,99.90
2022-12-11T20:12:39.730Z,99.90
2022-12-11T20:15:07.047Z,99.90
2022-12-11T20:17:33.831Z,99.90
2022-12-11T20:20:01.265Z,99.90
2022-12-11T20:22:28.141Z,99.90
2022-12-11T20:24:54.860Z,99.90
2022-12-11T20:27:21.641Z,99.90
2022-12-11T20:29:48.391Z,99.90
2022-12-11T20:32:15.180Z,99.90
2022-12-11T20:34:42.036Z,99.90
2022-12-11T20:37:08.887Z,99.90
2022-12-11T20:39:36.682Z,99.90
2022-12-11T20:42:04.810Z,99.90
2022-12-11T20:44:32.327Z,99.90
2022-12-11T20:46:59.169Z,99.90
2022-12-11T20:49:26.152Z,99.90
2022-12-11T20:51:53.204Z,99.90
2022-12-11T20:54:19.982Z,99.90
2022-12-11T20:56:47.568Z,99.90
2022-12-11T20:59:14.311Z,99.90
2022-12-11T21:01:41.230Z,99.90
2022-12-11T21:04:08.463Z,99.90
2022-12-11T21:06:38.555Z,99.90
2022-12-11T21:09:11.807Z,99.90
2022-12-11T21:11:39.094Z,99.90
2022-12-11T21:14:06.009Z,99.90
2022-12-11T21:16:36.304Z,99.90
2022-12-11T21:19:04.608Z,99.90
2022-12-11T21:21:41.993Z,99.90
2022-12-11T21:24:20.404Z,99.90
2022-12-11T21:26:48.588Z,99.90
2022-12-11T21:29:16.369Z,99.90
2022-12-11T21:31:43.952Z,99.90
2022-12-11T21:34:10.937Z,99.90
2022-12-11T21:36:37.689Z,99.90
2022-12-11T21:39:04.923Z,99.90
2022-12-11T21:41:32.391Z,99.90
2022-12-11T21:46:46.012Z,99.90
2022-12-11T21:49:12.840Z,99.90
2022-12-11T21:51:46.785Z,99.90
2022-12-11T21:54:17.952Z,99.90
2022-12-11T21:56:45.912Z,99.90
2022-12-11T21:59:13.555Z,99.90
2022-12-11T22:01:45.702Z,99.90
2022-12-11T22:04:14.469Z,99.90
2022-12-11T22:06:46.660Z,99.90
2022-12-11T22:09:15.561Z,99.90
2022-12-11T22:11:44.982Z,99.90
2022-12-11T22:14:14.528Z,99.90
2022-12-11T22:16:42.126Z,99.90
2022-12-11T22:19:09.519Z,99.90
2022-12-11T22:21:36.496Z,99.90
2022-12-11T22:24:03.612Z,99.90
2022-12-11T22:26:30.318Z,99.90
2022-12-11T22:28:58.532Z,99.90
2022-12-11T22:31:27.078Z,99.90
2022-12-11T22:33:55.133Z,99.90
2022-12-11T22:36:25.614Z,99.90
2022-12-11T22:38:52.667Z,99.90
2022-12-11T22:41:30.072Z,99.90
2022-12-11T22:43:58.574Z,99.90
2022-12-11T22:46:28.610Z,99.90
2022-12-11T22:48:55.958Z,99.90
2022-12-11T22:51:22.910Z,99.90
2022-12-11T22:53:50.056Z,99.90
2022-12-11T22:56:16.789Z,99.90
2022-12-11T22:58:43.617Z,99.90
2022-12-11T23:01:23.854Z,99.90
2022-12-11T23:03:51.906Z,99.90
2022-12-11T23:06:22.468Z,99.90
2022-12-11T23:08:49.411Z,99.90
2022-12-11T23:11:24.544Z,99.90
2022-12-11T23:13:51.972Z,99.90
2022-12-11T23:16:20.949Z,99.90
2022-12-11T23:18:47.890Z,99.90
2022-12-11T23:21:14.670Z,99.90
2022-12-11T23:23:42.681Z,99.90
2022-12-11T23:26:12.407Z,99.90
2022-12-11T23:28:40.167Z,99.90
2022-12-11T23:31:08.381Z,99.90
2022-12-11T23:33:35.227Z,99.90
2022-12-11T23:36:02.024Z,99.90
2022-12-11T23:38:28.779Z,99.90
2022-12-11T23:40:57.956Z,99.90
2022-12-11T23:43:24.641Z,99.90
2022-12-11T23:45:51.415Z,99.90
2022-12-11T23:48:18.698Z,99.90
2022-12-11T23:50:45.742Z,99.90
2022-12-11T23:53:12.757Z,99.90
2022-12-11T23:55:42.704Z,99.90
2022-12-11T23:58:10.696Z,99.90
